CheckWX is a tool to help pilots better visualize weather data.  It is not intended as a substitute for an official pre-flight weather briefing.

04:38:35 UTC

T20 METAR
Roger M Dreyer Memorial Airport
Gonzales, Texas, USA
Current

24 mins ago

KT20 170415Z AUTO 08003KT 10SM CLR 26/22 A2993 RMK AO2 T02610216
Observed
Sep-17 @ 04:15 UTC
Wind
  • 080° at 3 KTS
Visibility
10 SM
Flight Rules
VFR
Cloud Levels
  • Clear skies
Temperature
26°C / 79°F
Dewpoint
22°C / 72°F
Humidity
79%
Altimeter
29.93" Hg
Pressure
1013.52 hPa
Previous

44 mins ago

KT20 170355Z AUTO 00000KT 10SM CLR 27/22 A2993 RMK AO2 T02650215
Observed
Sep-17 @ 03:55 UTC
Visibility
10 SM
Flight Rules
VFR
Cloud Levels
  • Clear skies
Temperature
27°C / 81°F
Dewpoint
22°C / 72°F
Heat Index
29°C / 85°F
Humidity
74%
Altimeter
29.93" Hg
Pressure
1013.52 hPa
Previous

1 hour ago

KT20 170335Z AUTO 00000KT 10SM CLR 27/22 A2993 RMK AO2 LTG DSNT SE T02680215
Observed
Sep-17 @ 03:35 UTC
Visibility
10 SM
Flight Rules
VFR
Cloud Levels
  • Clear skies
Temperature
27°C / 81°F
Dewpoint
22°C / 72°F
Heat Index
29°C / 85°F
Humidity
74%
Altimeter
29.93" Hg
Pressure
1013.52 hPa